sensor_id;sensor_type;location;lat;lon;timestamp;P1;durP1;ratioP1;P2;durP2;ratioP2
54517;SDS011;40423;53.176;6.002;2023-04-03T00:01:07;2.58;;;1.20;;
54517;SDS011;40423;53.176;6.002;2023-04-03T00:03:33;3.55;;;1.50;;
54517;SDS011;40423;53.176;6.002;2023-04-03T00:05:59;3.92;;;1.80;;
54517;SDS011;40423;53.176;6.002;2023-04-03T00:08:25;3.45;;;1.45;;
54517;SDS011;40423;53.176;6.002;2023-04-03T00:10:51;2.90;;;1.40;;
54517;SDS011;40423;53.176;6.002;2023-04-03T00:13:17;6.20;;;1.73;;
54517;SDS011;40423;53.176;6.002;2023-04-03T00:15:43;4.22;;;1.50;;
54517;SDS011;40423;53.176;6.002;2023-04-03T00:18:09;6.47;;;2.00;;
54517;SDS011;40423;53.176;6.002;2023-04-03T00:20:35;3.22;;;1.58;;
54517;SDS011;40423;53.176;6.002;2023-04-03T00:23:01;4.47;;;1.60;;
54517;SDS011;40423;53.176;6.002;2023-04-03T00:25:27;3.60;;;1.75;;
54517;SDS011;40423;53.176;6.002;2023-04-03T00:27:53;4.72;;;1.58;;
54517;SDS011;40423;53.176;6.002;2023-04-03T00:30:20;5.25;;;2.13;;
54517;SDS011;40423;53.176;6.002;2023-04-03T00:32:50;4.18;;;2.10;;
54517;SDS011;40423;53.176;6.002;2023-04-03T00:35:17;3.03;;;1.42;;
54517;SDS011;40423;53.176;6.002;2023-04-03T00:37:43;3.70;;;1.70;;
54517;SDS011;40423;53.176;6.002;2023-04-03T00:40:10;3.40;;;1.50;;
54517;SDS011;40423;53.176;6.002;2023-04-03T00:42:37;3.88;;;1.83;;
54517;SDS011;40423;53.176;6.002;2023-04-03T00:47:30;3.60;;;1.90;;
54517;SDS011;40423;53.176;6.002;2023-04-03T00:49:56;3.60;;;1.48;;
54517;SDS011;40423;53.176;6.002;2023-04-03T00:52:23;3.60;;;1.73;;
54517;SDS011;40423;53.176;6.002;2023-04-03T00:54:54;4.82;;;2.00;;
54517;SDS011;40423;53.176;6.002;2023-04-03T00:57:23;4.18;;;1.63;;
54517;SDS011;40423;53.176;6.002;2023-04-03T00:59:50;3.92;;;1.70;;
54517;SDS011;40423;53.176;6.002;2023-04-03T01:02:21;5.32;;;1.85;;
54517;SDS011;40423;53.176;6.002;2023-04-03T01:04:47;4.55;;;1.60;;
54517;SDS011;40423;53.176;6.002;2023-04-03T01:07:23;6.15;;;1.67;;
54517;SDS011;40423;53.176;6.002;2023-04-03T01:09:53;5.53;;;1.52;;
54517;SDS011;40423;53.176;6.002;2023-04-03T01:14:54;3.95;;;1.33;;
54517;SDS011;40423;53.176;6.002;2023-04-03T01:17:32;4.85;;;1.63;;
54517;SDS011;40423;53.176;6.002;2023-04-03T01:25:28;3.85;;;1.23;;
54517;SDS011;40423;53.176;6.002;2023-04-03T01:27:54;4.80;;;1.90;;
54517;SDS011;40423;53.176;6.002;2023-04-03T01:30:21;3.67;;;1.52;;
54517;SDS011;40423;53.176;6.002;2023-04-03T01:32:52;3.97;;;1.75;;
54517;SDS011;40423;53.176;6.002;2023-04-03T01:35:18;3.90;;;1.30;;
54517;SDS011;40423;53.176;6.002;2023-04-03T01:37:44;5.50;;;1.52;;
54517;SDS011;40423;53.176;6.002;2023-04-03T01:40:10;3.35;;;1.50;;
54517;SDS011;40423;53.176;6.002;2023-04-03T01:42:36;4.85;;;1.25;;
54517;SDS011;40423;53.176;6.002;2023-04-03T01:45:01;4.00;;;1.92;;
54517;SDS011;40423;53.176;6.002;2023-04-03T01:47:27;4.20;;;1.85;;
54517;SDS011;40423;53.176;6.002;2023-04-03T01:49:53;4.82;;;1.63;;
54517;SDS011;40423;53.176;6.002;2023-04-03T01:52:18;3.72;;;1.20;;
54517;SDS011;40423;53.176;6.002;2023-04-03T01:54:44;3.40;;;1.48;;
54517;SDS011;40423;53.176;6.002;2023-04-03T01:57:10;5.78;;;2.13;;
54517;SDS011;40423;53.176;6.002;2023-04-03T01:59:35;3.80;;;1.30;;
54517;SDS011;40423;53.176;6.002;2023-04-03T02:02:01;3.47;;;1.60;;
54517;SDS011;40423;53.176;6.002;2023-04-03T02:04:27;2.28;;;1.20;;
54517;SDS011;40423;53.176;6.002;2023-04-03T02:06:52;3.17;;;1.40;;
54517;SDS011;40423;53.176;6.002;2023-04-03T02:09:18;2.72;;;1.30;;
54517;SDS011;40423;53.176;6.002;2023-04-03T02:11:44;5.00;;;1.50;;
54517;SDS011;40423;53.176;6.002;2023-04-03T02:14:09;5.65;;;1.83;;
54517;SDS011;40423;53.176;6.002;2023-04-03T02:16:35;2.53;;;1.20;;
54517;SDS011;40423;53.176;6.002;2023-04-03T02:19:01;7.05;;;1.73;;
54517;SDS011;40423;53.176;6.002;2023-04-03T02:21:27;2.75;;;1.15;;
54517;SDS011;40423;53.176;6.002;2023-04-03T02:23:53;4.90;;;1.45;;
54517;SDS011;40423;53.176;6.002;2023-04-03T02:26:19;4.30;;;1.38;;
54517;SDS011;40423;53.176;6.002;2023-04-03T02:28:45;5.43;;;1.30;;
54517;SDS011;40423;53.176;6.002;2023-04-03T02:31:11;4.95;;;1.80;;
54517;SDS011;40423;53.176;6.002;2023-04-03T02:33:36;3.05;;;1.38;;
54517;SDS011;40423;53.176;6.002;2023-04-03T02:36:03;6.43;;;1.40;;
54517;SDS011;40423;53.176;6.002;2023-04-03T02:38:30;2.83;;;1.10;;
54517;SDS011;40423;53.176;6.002;2023-04-03T02:41:03;3.80;;;1.48;;
54517;SDS011;40423;53.176;6.002;2023-04-03T02:43:30;6.72;;;2.50;;
54517;SDS011;40423;53.176;6.002;2023-04-03T02:45:55;6.03;;;1.58;;
54517;SDS011;40423;53.176;6.002;2023-04-03T02:48:21;4.63;;;1.70;;
54517;SDS011;40423;53.176;6.002;2023-04-03T02:50:48;3.28;;;1.23;;
54517;SDS011;40423;53.176;6.002;2023-04-03T02:53:13;5.10;;;1.42;;
54517;SDS011;40423;53.176;6.002;2023-04-03T02:55:40;5.18;;;1.58;;
54517;SDS011;40423;53.176;6.002;2023-04-03T02:58:06;4.68;;;1.13;;
54517;SDS011;40423;53.176;6.002;2023-04-03T03:00:32;2.80;;;1.10;;
54517;SDS011;40423;53.176;6.002;2023-04-03T03:02:58;4.05;;;1.77;;
54517;SDS011;40423;53.176;6.002;2023-04-03T03:05:25;6.65;;;1.77;;
54517;SDS011;40423;53.176;6.002;2023-04-03T03:07:52;3.08;;;1.52;;
54517;SDS011;40423;53.176;6.002;2023-04-03T03:10:18;4.90;;;1.40;;
54517;SDS011;40423;53.176;6.002;2023-04-03T03:12:44;6.20;;;1.85;;
54517;SDS011;40423;53.176;6.002;2023-04-03T03:15:09;2.85;;;1.48;;
54517;SDS011;40423;53.176;6.002;2023-04-03T03:17:35;9.13;;;1.67;;
54517;SDS011;40423;53.176;6.002;2023-04-03T03:20:02;3.00;;;1.15;;
54517;SDS011;40423;53.176;6.002;2023-04-03T03:22:28;4.63;;;1.83;;
54517;SDS011;40423;53.176;6.002;2023-04-03T03:24:54;5.22;;;1.73;;
54517;SDS011;40423;53.176;6.002;2023-04-03T03:27:20;6.07;;;1.67;;
54517;SDS011;40423;53.176;6.002;2023-04-03T03:29:46;6.72;;;2.03;;
54517;SDS011;40423;53.176;6.002;2023-04-03T03:32:12;3.78;;;1.58;;
54517;SDS011;40423;53.176;6.002;2023-04-03T03:34:38;5.93;;;1.60;;
54517;SDS011;40423;53.176;6.002;2023-04-03T03:37:03;5.65;;;1.95;;
54517;SDS011;40423;53.176;6.002;2023-04-03T03:39:29;2.83;;;1.40;;
54517;SDS011;40423;53.176;6.002;2023-04-03T03:41:55;6.28;;;1.67;;
54517;SDS011;40423;53.176;6.002;2023-04-03T03:44:21;5.20;;;2.00;;
54517;SDS011;40423;53.176;6.002;2023-04-03T03:46:46;5.25;;;1.52;;
54517;SDS011;40423;53.176;6.002;2023-04-03T03:49:12;6.45;;;2.10;;
54517;SDS011;40423;53.176;6.002;2023-04-03T03:51:38;7.22;;;2.42;;
54517;SDS011;40423;53.176;6.002;2023-04-03T03:54:05;5.43;;;1.73;;
54517;SDS011;40423;53.176;6.002;2023-04-03T03:56:31;6.00;;;1.65;;
54517;SDS011;40423;53.176;6.002;2023-04-03T03:58:57;6.95;;;1.67;;
54517;SDS011;40423;53.176;6.002;2023-04-03T04:01:23;9.60;;;1.83;;
54517;SDS011;40423;53.176;6.002;2023-04-03T04:03:49;7.82;;;2.42;;
54517;SDS011;40423;53.176;6.002;2023-04-03T04:06:15;6.95;;;1.60;;
54517;SDS011;40423;53.176;6.002;2023-04-03T04:08:41;5.82;;;1.85;;
54517;SDS011;40423;53.176;6.002;2023-04-03T04:11:08;4.68;;;1.50;;
54517;SDS011;40423;53.176;6.002;2023-04-03T04:13:34;5.82;;;2.10;;
54517;SDS011;40423;53.176;6.002;2023-04-03T04:15:59;6.20;;;1.73;;
54517;SDS011;40423;53.176;6.002;2023-04-03T04:18:26;4.85;;;2.03;;
54517;SDS011;40423;53.176;6.002;2023-04-03T04:20:51;5.38;;;1.98;;
54517;SDS011;40423;53.176;6.002;2023-04-03T04:23:17;7.88;;;1.73;;
54517;SDS011;40423;53.176;6.002;2023-04-03T04:25:47;6.03;;;2.20;;
54517;SDS011;40423;53.176;6.002;2023-04-03T04:28:13;7.03;;;2.42;;
54517;SDS011;40423;53.176;6.002;2023-04-03T04:30:39;8.23;;;2.10;;
54517;SDS011;40423;53.176;6.002;2023-04-03T04:33:05;6.65;;;2.35;;
54517;SDS011;40423;53.176;6.002;2023-04-03T04:35:32;5.57;;;2.15;;
54517;SDS011;40423;53.176;6.002;2023-04-03T04:37:58;9.02;;;2.78;;
54517;SDS011;40423;53.176;6.002;2023-04-03T04:40:25;6.88;;;1.80;;
54517;SDS011;40423;53.176;6.002;2023-04-03T04:42:51;7.18;;;2.45;;
54517;SDS011;40423;53.176;6.002;2023-04-03T04:45:17;6.07;;;2.20;;
54517;SDS011;40423;53.176;6.002;2023-04-03T04:47:43;6.80;;;2.20;;
54517;SDS011;40423;53.176;6.002;2023-04-03T04:50:09;5.80;;;2.30;;
54517;SDS011;40423;53.176;6.002;2023-04-03T04:52:35;5.15;;;2.33;;
54517;SDS011;40423;53.176;6.002;2023-04-03T04:55:01;4.50;;;1.70;;
54517;SDS011;40423;53.176;6.002;2023-04-03T04:57:27;6.22;;;2.00;;
54517;SDS011;40423;53.176;6.002;2023-04-03T04:59:52;9.07;;;2.42;;
54517;SDS011;40423;53.176;6.002;2023-04-03T05:02:18;5.80;;;1.63;;
54517;SDS011;40423;53.176;6.002;2023-04-03T05:04:44;6.70;;;1.88;;
54517;SDS011;40423;53.176;6.002;2023-04-03T05:07:10;5.72;;;1.98;;
54517;SDS011;40423;53.176;6.002;2023-04-03T05:09:35;8.40;;;3.33;;
54517;SDS011;40423;53.176;6.002;2023-04-03T05:12:01;7.10;;;2.78;;
54517;SDS011;40423;53.176;6.002;2023-04-03T05:14:28;7.40;;;2.30;;
54517;SDS011;40423;53.176;6.002;2023-04-03T05:16:54;7.35;;;2.72;;
54517;SDS011;40423;53.176;6.002;2023-04-03T05:19:20;5.55;;;2.33;;
54517;SDS011;40423;53.176;6.002;2023-04-03T05:21:46;6.75;;;2.05;;
54517;SDS011;40423;53.176;6.002;2023-04-03T05:24:12;5.50;;;2.13;;
54517;SDS011;40423;53.176;6.002;2023-04-03T05:26:38;7.38;;;2.53;;
54517;SDS011;40423;53.176;6.002;2023-04-03T05:29:04;8.90;;;2.33;;
54517;SDS011;40423;53.176;6.002;2023-04-03T05:31:30;7.53;;;2.08;;
54517;SDS011;40423;53.176;6.002;2023-04-03T05:33:56;5.15;;;2.22;;
54517;SDS011;40423;53.176;6.002;2023-04-03T05:36:22;6.13;;;2.40;;
54517;SDS011;40423;53.176;6.002;2023-04-03T05:38:48;7.05;;;2.30;;
54517;SDS011;40423;53.176;6.002;2023-04-03T05:41:14;4.65;;;2.42;;
54517;SDS011;40423;53.176;6.002;2023-04-03T05:43:40;5.63;;;2.70;;
54517;SDS011;40423;53.176;6.002;2023-04-03T05:46:13;7.55;;;2.60;;
54517;SDS011;40423;53.176;6.002;2023-04-03T05:48:41;10.75;;;2.58;;
54517;SDS011;40423;53.176;6.002;2023-04-03T05:51:07;5.45;;;1.98;;
54517;SDS011;40423;53.176;6.002;2023-04-03T05:53:39;9.55;;;2.90;;
54517;SDS011;40423;53.176;6.002;2023-04-03T05:56:06;10.98;;;2.50;;
54517;SDS011;40423;53.176;6.002;2023-04-03T05:58:31;8.48;;;2.40;;
54517;SDS011;40423;53.176;6.002;2023-04-03T06:00:57;6.80;;;2.25;;
54517;SDS011;40423;53.176;6.002;2023-04-03T06:03:23;12.15;;;3.85;;
54517;SDS011;40423;53.176;6.002;2023-04-03T06:05:49;6.50;;;2.50;;
54517;SDS011;40423;53.176;6.002;2023-04-03T06:08:15;10.75;;;2.70;;
54517;SDS011;40423;53.176;6.002;2023-04-03T06:10:40;6.15;;;2.55;;
54517;SDS011;40423;53.176;6.002;2023-04-03T06:13:06;7.85;;;2.53;;
54517;SDS011;40423;53.176;6.002;2023-04-03T06:15:32;6.10;;;2.28;;
54517;SDS011;40423;53.176;6.002;2023-04-03T06:17:58;7.60;;;2.05;;
54517;SDS011;40423;53.176;6.002;2023-04-03T06:20:25;7.43;;;2.50;;
54517;SDS011;40423;53.176;6.002;2023-04-03T06:22:51;10.45;;;2.65;;
54517;SDS011;40423;53.176;6.002;2023-04-03T06:25:16;7.40;;;2.65;;
54517;SDS011;40423;53.176;6.002;2023-04-03T06:27:44;10.25;;;2.53;;
54517;SDS011;40423;53.176;6.002;2023-04-03T06:30:10;6.95;;;2.63;;
54517;SDS011;40423;53.176;6.002;2023-04-03T06:32:36;9.00;;;3.08;;
54517;SDS011;40423;53.176;6.002;2023-04-03T06:35:03;5.72;;;2.70;;
54517;SDS011;40423;53.176;6.002;2023-04-03T06:37:29;9.45;;;2.60;;
54517;SDS011;40423;53.176;6.002;2023-04-03T06:39:56;7.25;;;2.60;;
54517;SDS011;40423;53.176;6.002;2023-04-03T06:42:22;11.75;;;2.70;;
54517;SDS011;40423;53.176;6.002;2023-04-03T06:44:48;10.57;;;2.85;;
54517;SDS011;40423;53.176;6.002;2023-04-03T06:47:14;11.32;;;4.05;;
54517;SDS011;40423;53.176;6.002;2023-04-03T06:49:40;7.53;;;2.92;;
54517;SDS011;40423;53.176;6.002;2023-04-03T06:52:07;7.65;;;3.08;;
54517;SDS011;40423;53.176;6.002;2023-04-03T06:54:33;8.05;;;3.00;;
54517;SDS011;40423;53.176;6.002;2023-04-03T06:56:59;8.15;;;2.72;;
54517;SDS011;40423;53.176;6.002;2023-04-03T06:59:26;8.75;;;3.00;;
54517;SDS011;40423;53.176;6.002;2023-04-03T07:01:52;9.30;;;2.30;;
54517;SDS011;40423;53.176;6.002;2023-04-03T07:04:18;10.02;;;3.00;;
54517;SDS011;40423;53.176;6.002;2023-04-03T07:06:45;5.50;;;2.45;;
54517;SDS011;40423;53.176;6.002;2023-04-03T07:09:12;5.47;;;2.33;;
54517;SDS011;40423;53.176;6.002;2023-04-03T07:11:38;9.02;;;2.83;;
54517;SDS011;40423;53.176;6.002;2023-04-03T07:14:04;6.70;;;2.92;;
54517;SDS011;40423;53.176;6.002;2023-04-03T07:16:31;7.68;;;3.20;;
54517;SDS011;40423;53.176;6.002;2023-04-03T07:18:57;6.88;;;2.83;;
54517;SDS011;40423;53.176;6.002;2023-04-03T07:21:22;7.80;;;2.60;;
54517;SDS011;40423;53.176;6.002;2023-04-03T07:23:48;8.65;;;2.47;;
54517;SDS011;40423;53.176;6.002;2023-04-03T07:26:15;6.95;;;2.53;;
54517;SDS011;40423;53.176;6.002;2023-04-03T07:28:41;6.55;;;2.65;;
54517;SDS011;40423;53.176;6.002;2023-04-03T07:31:08;8.65;;;2.50;;
54517;SDS011;40423;53.176;6.002;2023-04-03T07:33:38;8.65;;;2.95;;
54517;SDS011;40423;53.176;6.002;2023-04-03T07:36:05;10.57;;;2.47;;
54517;SDS011;40423;53.176;6.002;2023-04-03T07:38:32;7.00;;;2.55;;
54517;SDS011;40423;53.176;6.002;2023-04-03T07:40:58;6.32;;;1.90;;
54517;SDS011;40423;53.176;6.002;2023-04-03T07:43:24;8.70;;;2.50;;
54517;SDS011;40423;53.176;6.002;2023-04-03T07:45:51;7.35;;;2.20;;
54517;SDS011;40423;53.176;6.002;2023-04-03T07:48:23;4.45;;;2.03;;
54517;SDS011;40423;53.176;6.002;2023-04-03T07:50:50;4.28;;;1.77;;
54517;SDS011;40423;53.176;6.002;2023-04-03T07:53:17;6.78;;;2.17;;
54517;SDS011;40423;53.176;6.002;2023-04-03T07:55:45;6.57;;;2.25;;
54517;SDS011;40423;53.176;6.002;2023-04-03T07:58:13;10.88;;;2.10;;
54517;SDS011;40423;53.176;6.002;2023-04-03T08:00:43;5.13;;;1.90;;
54517;SDS011;40423;53.176;6.002;2023-04-03T08:03:10;6.65;;;2.45;;
54517;SDS011;40423;53.176;6.002;2023-04-03T08:05:46;9.18;;;2.15;;
54517;SDS011;40423;53.176;6.002;2023-04-03T08:08:15;3.60;;;1.63;;
54517;SDS011;40423;53.176;6.002;2023-04-03T08:10:52;6.07;;;2.13;;
54517;SDS011;40423;53.176;6.002;2023-04-03T08:13:19;5.13;;;2.13;;
54517;SDS011;40423;53.176;6.002;2023-04-03T08:15:46;3.72;;;1.55;;
54517;SDS011;40423;53.176;6.002;2023-04-03T08:18:13;6.28;;;1.50;;
54517;SDS011;40423;53.176;6.002;2023-04-03T08:20:40;6.15;;;1.80;;
54517;SDS011;40423;53.176;6.002;2023-04-03T08:23:06;6.30;;;1.70;;
54517;SDS011;40423;53.176;6.002;2023-04-03T08:25:33;4.97;;;1.55;;
54517;SDS011;40423;53.176;6.002;2023-04-03T08:28:02;6.20;;;1.80;;
54517;SDS011;40423;53.176;6.002;2023-04-03T08:30:28;4.78;;;1.65;;
54517;SDS011;40423;53.176;6.002;2023-04-03T08:32:54;5.05;;;1.55;;
54517;SDS011;40423;53.176;6.002;2023-04-03T08:35:20;4.32;;;1.73;;
54517;SDS011;40423;53.176;6.002;2023-04-03T08:37:46;5.32;;;1.90;;
54517;SDS011;40423;53.176;6.002;2023-04-03T08:40:13;3.95;;;1.63;;
54517;SDS011;40423;53.176;6.002;2023-04-03T08:43:26;3.60;;;1.30;;
54517;SDS011;40423;53.176;6.002;2023-04-03T08:45:49;5.15;;;1.10;;
54517;SDS011;40423;53.176;6.002;2023-04-03T08:50:56;3.75;;;1.20;;
54517;SDS011;40423;53.176;6.002;2023-04-03T08:53:25;4.22;;;1.35;;
54517;SDS011;40423;53.176;6.002;2023-04-03T08:55:56;3.20;;;1.08;;
54517;SDS011;40423;53.176;6.002;2023-04-03T08:58:30;3.55;;;1.35;;
54517;SDS011;40423;53.176;6.002;2023-04-03T09:01:04;3.92;;;1.17;;
54517;SDS011;40423;53.176;6.002;2023-04-03T09:03:36;3.63;;;1.90;;
54517;SDS011;40423;53.176;6.002;2023-04-03T09:06:12;3.63;;;1.42;;
54517;SDS011;40423;53.176;6.002;2023-04-03T09:17:07;3.20;;;0.88;;
54517;SDS011;40423;53.176;6.002;2023-04-03T09:19:47;4.20;;;0.98;;
54517;SDS011;40423;53.176;6.002;2023-04-03T09:22:24;3.47;;;0.98;;
54517;SDS011;40423;53.176;6.002;2023-04-03T09:25:00;3.03;;;0.90;;
54517;SDS011;40423;53.176;6.002;2023-04-03T09:27:33;3.00;;;1.00;;
54517;SDS011;40423;53.176;6.002;2023-04-03T09:29:59;2.17;;;0.90;;
54517;SDS011;40423;53.176;6.002;2023-04-03T09:32:26;2.70;;;1.00;;
54517;SDS011;40423;53.176;6.002;2023-04-03T09:34:54;4.50;;;0.90;;
54517;SDS011;40423;53.176;6.002;2023-04-03T09:37:34;3.53;;;1.15;;
54517;SDS011;40423;53.176;6.002;2023-04-03T09:40:01;2.53;;;0.85;;
54517;SDS011;40423;53.176;6.002;2023-04-03T09:42:29;2.88;;;0.90;;
54517;SDS011;40423;53.176;6.002;2023-04-03T09:52:57;3.40;;;1.05;;
54517;SDS011;40423;53.176;6.002;2023-04-03T09:55:25;2.33;;;0.90;;
54517;SDS011;40423;53.176;6.002;2023-04-03T09:57:55;2.53;;;0.90;;
54517;SDS011;40423;53.176;6.002;2023-04-03T10:00:28;2.25;;;1.20;;
54517;SDS011;40423;53.176;6.002;2023-04-03T10:03:01;3.60;;;1.10;;
54517;SDS011;40423;53.176;6.002;2023-04-03T10:10:39;3.33;;;1.10;;
54517;SDS011;40423;53.176;6.002;2023-04-03T10:13:16;2.15;;;0.73;;
54517;SDS011;40423;53.176;6.002;2023-04-03T10:15:48;3.03;;;1.15;;
54517;SDS011;40423;53.176;6.002;2023-04-03T10:20:57;2.38;;;0.70;;
54517;SDS011;40423;53.176;6.002;2023-04-03T10:23:40;2.33;;;0.65;;
54517;SDS011;40423;53.176;6.002;2023-04-03T10:34:42;2.45;;;1.05;;
54517;SDS011;40423;53.176;6.002;2023-04-03T10:39:57;2.47;;;0.80;;
54517;SDS011;40423;53.176;6.002;2023-04-03T10:42:32;3.25;;;0.80;;
54517;SDS011;40423;53.176;6.002;2023-04-03T10:50:47;1.65;;;0.70;;
54517;SDS011;40423;53.176;6.002;2023-04-03T10:56:44;2.45;;;1.02;;
54517;SDS011;40423;53.176;6.002;2023-04-03T10:59:30;2.63;;;0.70;;
54517;SDS011;40423;53.176;6.002;2023-04-03T11:02:40;3.40;;;1.08;;
54517;SDS011;40423;53.176;6.002;2023-04-03T11:05:06;2.13;;;0.60;;
54517;SDS011;40423;53.176;6.002;2023-04-03T11:07:42;3.35;;;0.95;;
54517;SDS011;40423;53.176;6.002;2023-04-03T11:10:18;21.30;;;2.35;;
54517;SDS011;40423;53.176;6.002;2023-04-03T11:12:59;2.75;;;0.88;;
54517;SDS011;40423;53.176;6.002;2023-04-03T11:15:32;2.58;;;0.73;;
54517;SDS011;40423;53.176;6.002;2023-04-03T11:18:00;5.28;;;0.85;;
54517;SDS011;40423;53.176;6.002;2023-04-03T11:20:31;7.93;;;2.30;;
54517;SDS011;40423;53.176;6.002;2023-04-03T11:23:00;1.80;;;0.80;;
54517;SDS011;40423;53.176;6.002;2023-04-03T11:25:31;1.70;;;0.60;;
54517;SDS011;40423;53.176;6.002;2023-04-03T11:28:00;3.38;;;1.00;;
54517;SDS011;40423;53.176;6.002;2023-04-03T11:33:49;1.33;;;0.75;;
54517;SDS011;40423;53.176;6.002;2023-04-03T11:36:28;3.30;;;0.90;;
54517;SDS011;40423;53.176;6.002;2023-04-03T11:38:58;5.30;;;1.27;;
54517;SDS011;40423;53.176;6.002;2023-04-03T11:41:43;2.63;;;0.80;;
54517;SDS011;40423;53.176;6.002;2023-04-03T11:47:00;1.92;;;0.85;;
54517;SDS011;40423;53.176;6.002;2023-04-03T12:05:58;1.40;;;0.68;;
54517;SDS011;40423;53.176;6.002;2023-04-03T12:29:28;2.73;;;1.00;;
54517;SDS011;40423;53.176;6.002;2023-04-03T12:37:39;3.80;;;0.80;;
54517;SDS011;40423;53.176;6.002;2023-04-03T12:40:26;1.95;;;0.90;;
54517;SDS011;40423;53.176;6.002;2023-04-03T12:42:56;1.30;;;0.68;;
54517;SDS011;40423;53.176;6.002;2023-04-03T12:45:26;2.85;;;0.80;;
54517;SDS011;40423;53.176;6.002;2023-04-03T12:47:53;1.58;;;0.93;;
54517;SDS011;40423;53.176;6.002;2023-04-03T12:50:25;3.92;;;1.00;;
54517;SDS011;40423;53.176;6.002;2023-04-03T12:53:01;2.35;;;1.15;;
54517;SDS011;40423;53.176;6.002;2023-04-03T12:56:20;1.73;;;0.80;;
54517;SDS011;40423;53.176;6.002;2023-04-03T12:58:50;1.87;;;0.90;;
54517;SDS011;40423;53.176;6.002;2023-04-03T13:01:21;5.25;;;1.15;;
54517;SDS011;40423;53.176;6.002;2023-04-03T13:03:55;5.82;;;1.20;;
54517;SDS011;40423;53.176;6.002;2023-04-03T13:08:54;2.83;;;1.23;;
54517;SDS011;40423;53.176;6.002;2023-04-03T13:11:23;4.43;;;1.02;;
54517;SDS011;40423;53.176;6.002;2023-04-03T13:13:58;2.08;;;0.70;;
54517;SDS011;40423;53.176;6.002;2023-04-03T13:16:27;1.92;;;0.98;;
54517;SDS011;40423;53.176;6.002;2023-04-03T13:18:53;1.63;;;0.95;;
54517;SDS011;40423;53.176;6.002;2023-04-03T13:21:30;3.08;;;1.30;;
54517;SDS011;40423;53.176;6.002;2023-04-03T13:23:59;4.93;;;0.85;;
54517;SDS011;40423;53.176;6.002;2023-04-03T13:26:29;3.38;;;1.02;;
54517;SDS011;40423;53.176;6.002;2023-04-03T13:28:57;2.35;;;0.88;;
54517;SDS011;40423;53.176;6.002;2023-04-03T13:31:35;2.80;;;1.10;;
54517;SDS011;40423;53.176;6.002;2023-04-03T13:41:46;2.40;;;1.13;;
54517;SDS011;40423;53.176;6.002;2023-04-03T13:44:23;2.40;;;0.80;;
54517;SDS011;40423;53.176;6.002;2023-04-03T13:46:54;3.45;;;1.30;;
54517;SDS011;40423;53.176;6.002;2023-04-03T13:52:03;3.50;;;1.08;;
54517;SDS011;40423;53.176;6.002;2023-04-03T13:54:57;1.63;;;0.70;;
54517;SDS011;40423;53.176;6.002;2023-04-03T13:57:26;2.58;;;1.00;;
54517;SDS011;40423;53.176;6.002;2023-04-03T13:59:52;4.32;;;1.08;;
54517;SDS011;40423;53.176;6.002;2023-04-03T14:02:28;4.07;;;1.30;;
54517;SDS011;40423;53.176;6.002;2023-04-03T14:04:59;2.75;;;1.27;;
54517;SDS011;40423;53.176;6.002;2023-04-03T14:07:28;3.13;;;1.20;;
54517;SDS011;40423;53.176;6.002;2023-04-03T14:09:54;2.38;;;0.80;;
54517;SDS011;40423;53.176;6.002;2023-04-03T14:14:54;2.95;;;1.20;;
54517;SDS011;40423;53.176;6.002;2023-04-03T14:17:22;4.32;;;1.85;;
54517;SDS011;40423;53.176;6.002;2023-04-03T14:19:50;5.25;;;0.88;;
54517;SDS011;40423;53.176;6.002;2023-04-03T14:22:18;4.63;;;1.27;;
54517;SDS011;40423;53.176;6.002;2023-04-03T14:24:50;4.63;;;1.15;;
54517;SDS011;40423;53.176;6.002;2023-04-03T14:29:48;3.10;;;1.00;;
54517;SDS011;40423;53.176;6.002;2023-04-03T14:32:15;1.80;;;1.08;;
54517;SDS011;40423;53.176;6.002;2023-04-03T14:34:42;3.83;;;1.27;;
54517;SDS011;40423;53.176;6.002;2023-04-03T14:37:12;1.98;;;0.82;;
54517;SDS011;40423;53.176;6.002;2023-04-03T14:39:41;4.72;;;1.52;;
54517;SDS011;40423;53.176;6.002;2023-04-03T14:42:11;3.15;;;1.05;;
54517;SDS011;40423;53.176;6.002;2023-04-03T14:44:46;2.83;;;0.95;;
54517;SDS011;40423;53.176;6.002;2023-04-03T14:47:12;2.95;;;0.80;;
54517;SDS011;40423;53.176;6.002;2023-04-03T14:49:39;3.95;;;1.00;;
54517;SDS011;40423;53.176;6.002;2023-04-03T14:52:05;4.40;;;1.13;;
54517;SDS011;40423;53.176;6.002;2023-04-03T14:54:31;1.98;;;0.85;;
54517;SDS011;40423;53.176;6.002;2023-04-03T14:56:57;3.05;;;1.20;;
54517;SDS011;40423;53.176;6.002;2023-04-03T14:59:30;3.10;;;1.30;;
54517;SDS011;40423;53.176;6.002;2023-04-03T15:01:57;5.03;;;1.58;;
54517;SDS011;40423;53.176;6.002;2023-04-03T15:04:23;4.57;;;1.92;;
54517;SDS011;40423;53.176;6.002;2023-04-03T15:06:50;4.78;;;1.20;;
54517;SDS011;40423;53.176;6.002;2023-04-03T15:09:19;5.07;;;1.45;;
54517;SDS011;40423;53.176;6.002;2023-04-03T15:11:46;3.47;;;1.17;;
54517;SDS011;40423;53.176;6.002;2023-04-03T15:14:13;3.45;;;1.70;;
54517;SDS011;40423;53.176;6.002;2023-04-03T15:16:38;3.70;;;1.33;;
54517;SDS011;40423;53.176;6.002;2023-04-03T15:19:05;4.70;;;1.85;;
54517;SDS011;40423;53.176;6.002;2023-04-03T15:21:30;2.95;;;1.40;;
54517;SDS011;40423;53.176;6.002;2023-04-03T15:23:56;4.43;;;1.40;;
54517;SDS011;40423;53.176;6.002;2023-04-03T15:26:21;3.00;;;1.38;;
54517;SDS011;40423;53.176;6.002;2023-04-03T15:28:47;6.80;;;2.13;;
54517;SDS011;40423;53.176;6.002;2023-04-03T15:31:13;5.22;;;1.42;;
54517;SDS011;40423;53.176;6.002;2023-04-03T15:33:39;3.08;;;1.15;;
54517;SDS011;40423;53.176;6.002;2023-04-03T15:36:05;1.90;;;1.10;;
54517;SDS011;40423;53.176;6.002;2023-04-03T15:38:31;3.78;;;1.30;;
54517;SDS011;40423;53.176;6.002;2023-04-03T15:40:57;3.47;;;1.05;;
54517;SDS011;40423;53.176;6.002;2023-04-03T15:43:23;3.83;;;1.20;;
54517;SDS011;40423;53.176;6.002;2023-04-03T15:45:49;2.72;;;0.98;;
54517;SDS011;40423;53.176;6.002;2023-04-03T15:48:15;4.47;;;1.90;;
54517;SDS011;40423;53.176;6.002;2023-04-03T15:50:42;4.13;;;1.08;;
54517;SDS011;40423;53.176;6.002;2023-04-03T15:53:08;3.85;;;1.10;;
54517;SDS011;40423;53.176;6.002;2023-04-03T15:55:35;8.98;;;2.17;;
54517;SDS011;40423;53.176;6.002;2023-04-03T15:58:02;2.15;;;0.70;;
54517;SDS011;40423;53.176;6.002;2023-04-03T16:00:29;4.53;;;1.40;;
54517;SDS011;40423;53.176;6.002;2023-04-03T16:02:57;5.05;;;1.20;;
54517;SDS011;40423;53.176;6.002;2023-04-03T16:05:26;4.82;;;1.05;;
54517;SDS011;40423;53.176;6.002;2023-04-03T16:07:52;2.47;;;0.85;;
54517;SDS011;40423;53.176;6.002;2023-04-03T16:10:20;3.03;;;0.80;;
54517;SDS011;40423;53.176;6.002;2023-04-03T16:12:46;2.95;;;1.02;;
54517;SDS011;40423;53.176;6.002;2023-04-03T16:15:11;1.95;;;0.75;;
54517;SDS011;40423;53.176;6.002;2023-04-03T16:17:37;2.50;;;0.65;;
54517;SDS011;40423;53.176;6.002;2023-04-03T16:20:06;1.83;;;0.85;;
54517;SDS011;40423;53.176;6.002;2023-04-03T16:22:33;1.98;;;0.63;;
54517;SDS011;40423;53.176;6.002;2023-04-03T16:25:00;4.32;;;1.60;;
54517;SDS011;40423;53.176;6.002;2023-04-03T16:27:26;4.63;;;0.82;;
54517;SDS011;40423;53.176;6.002;2023-04-03T16:29:54;1.70;;;0.73;;
54517;SDS011;40423;53.176;6.002;2023-04-03T16:32:20;2.13;;;0.70;;
54517;SDS011;40423;53.176;6.002;2023-04-03T16:34:46;2.45;;;0.80;;
54517;SDS011;40423;53.176;6.002;2023-04-03T16:37:12;3.55;;;0.98;;
54517;SDS011;40423;53.176;6.002;2023-04-03T16:39:39;3.30;;;0.60;;
54517;SDS011;40423;53.176;6.002;2023-04-03T16:42:05;4.25;;;1.08;;
54517;SDS011;40423;53.176;6.002;2023-04-03T16:44:31;4.43;;;1.35;;
54517;SDS011;40423;53.176;6.002;2023-04-03T16:46:57;4.05;;;1.40;;
54517;SDS011;40423;53.176;6.002;2023-04-03T16:49:22;2.50;;;1.00;;
54517;SDS011;40423;53.176;6.002;2023-04-03T16:51:48;3.45;;;1.02;;
54517;SDS011;40423;53.176;6.002;2023-04-03T16:54:14;3.50;;;1.00;;
54517;SDS011;40423;53.176;6.002;2023-04-03T16:56:40;2.70;;;0.82;;
54517;SDS011;40423;53.176;6.002;2023-04-03T16:59:06;2.47;;;0.88;;